Omaha, NE (68139)

2:41 AM CST on March 04, 2015 (GMT -0600)
Millard | Change Station
CLOSE
Current Station
Personal Weather Station
Location: Omaha, NE
Elevation: 1142 ft
Nearby Weather Stations

Elev 1142 ft 41.21 °N, 96.12 °W | Updated 19 seconds ago

Light Snow
Light Snow
16.2 °F
Feels Like 16 °F
N
0.4
Wind Variable Wind from NNW
Gusts 2.5 mph

Today
High -- | Low -- °F
--% Chance of Precip.
Yesterday
High -- | Low -- °F
Precip. -- in
6:54 AM 6:18 PM
Waxing Gibbous, 98% visible
Pressure 30.20 in
Visibility 4.0 miles
Clouds Overcast 1500 ft
Windchill 16 °F
Dew Point -16 °F
Humidity 22%
Rainfall 0.00 in
Snow Depth Not available.
UV 0 out of 12
Pollen 2.20 out of 12
Air Quality Not available.
Flu Activity Not available.
METAR KMLE 040815Z AUTO 33003KT 4SM -SN OVC015 M08/M11 A3020 RMK AO2 T10801112

More Conditions Fewer Conditions

Pressure 30.20 in
Visibility 4.0 miles
Clouds Overcast 1500 ft
Windchill 16 °F
Dew Point -16 °F
Humidity 22%
Rainfall 0.00 in
Snow Depth Not available.
UV 0 out of 12
Pollen 2.20 out of 12
Air Quality Not available.
Flu Activity Not available.
METAR KMLE 040815Z AUTO 33003KT 4SM -SN OVC015 M08/M11 A3020 RMK AO2 T10801112

More Conditions Fewer Conditions

10-Day Weather Forecast

Almanac

Astronomy

Mar. 04, 2015 Rise Set
Actual Time
Civil Twilight
Nautical Twilight
Astronomical Twilight
Moon
Length of Visible Light
Length of Day
Tomorrow will be .
, % of the Moon is Illuminated

Today's Extremes

State Highs State Lows

Community

WunderPhotos

Upload Photos

1,802,416 photos uploaded!

WunderBlogs® & News

Nearby

Air Quality

  Air Quality AQ Index Pollutant
Not available.

Snow Depth

Station Depth Elevation

Earthquake Activity

City Distance Mag. Time & Date
Minimum magnitude displayed is 2.5.

Coastal Water Temperatures

Place Temperature

Nearby Weather Stations